sensor_id;sensor_type;location;lat;lon;timestamp;P1;durP1;ratioP1;P2;durP2;ratioP2
51654;SDS011;37732;53.106;7.030;2024-02-21T00:01:46;16.25;;;7.40;;
51654;SDS011;37732;53.106;7.030;2024-02-21T00:04:12;13.40;;;6.38;;
51654;SDS011;37732;53.106;7.030;2024-02-21T00:06:38;11.80;;;6.38;;
51654;SDS011;37732;53.106;7.030;2024-02-21T00:09:03;11.30;;;6.47;;
51654;SDS011;37732;53.106;7.030;2024-02-21T00:11:29;12.38;;;6.65;;
51654;SDS011;37732;53.106;7.030;2024-02-21T00:13:55;11.40;;;5.85;;
51654;SDS011;37732;53.106;7.030;2024-02-21T00:16:20;14.55;;;6.03;;
51654;SDS011;37732;53.106;7.030;2024-02-21T00:18:46;13.13;;;6.20;;
51654;SDS011;37732;53.106;7.030;2024-02-21T00:21:12;17.10;;;7.13;;
51654;SDS011;37732;53.106;7.030;2024-02-21T00:23:43;13.80;;;6.35;;
51654;SDS011;37732;53.106;7.030;2024-02-21T00:26:11;12.73;;;6.93;;
51654;SDS011;37732;53.106;7.030;2024-02-21T00:28:37;13.75;;;5.57;;
51654;SDS011;37732;53.106;7.030;2024-02-21T00:31:03;15.27;;;5.82;;
51654;SDS011;37732;53.106;7.030;2024-02-21T00:33:29;11.38;;;5.53;;
51654;SDS011;37732;53.106;7.030;2024-02-21T00:35:54;17.52;;;7.32;;
51654;SDS011;37732;53.106;7.030;2024-02-21T00:38:20;16.17;;;6.38;;
51654;SDS011;37732;53.106;7.030;2024-02-21T00:40:46;14.88;;;6.50;;
51654;SDS011;37732;53.106;7.030;2024-02-21T00:43:11;13.10;;;5.55;;
51654;SDS011;37732;53.106;7.030;2024-02-21T00:45:37;14.15;;;6.65;;
51654;SDS011;37732;53.106;7.030;2024-02-21T00:48:03;17.77;;;7.03;;
51654;SDS011;37732;53.106;7.030;2024-02-21T00:50:29;18.70;;;7.20;;
51654;SDS011;37732;53.106;7.030;2024-02-21T00:52:55;16.40;;;6.50;;
51654;SDS011;37732;53.106;7.030;2024-02-21T00:55:21;17.85;;;5.60;;
51654;SDS011;37732;53.106;7.030;2024-02-21T00:57:46;13.40;;;5.20;;
51654;SDS011;37732;53.106;7.030;2024-02-21T01:00:12;14.95;;;5.50;;
51654;SDS011;37732;53.106;7.030;2024-02-21T01:02:38;15.93;;;5.28;;
51654;SDS011;37732;53.106;7.030;2024-02-21T01:05:04;17.48;;;5.50;;
51654;SDS011;37732;53.106;7.030;2024-02-21T01:07:30;20.60;;;6.93;;
51654;SDS011;37732;53.106;7.030;2024-02-21T01:09:56;15.13;;;5.75;;
51654;SDS011;37732;53.106;7.030;2024-02-21T01:12:21;18.50;;;7.35;;
51654;SDS011;37732;53.106;7.030;2024-02-21T01:14:47;16.65;;;6.28;;
51654;SDS011;37732;53.106;7.030;2024-02-21T01:17:14;12.73;;;5.63;;
51654;SDS011;37732;53.106;7.030;2024-02-21T01:19:40;18.98;;;5.70;;
51654;SDS011;37732;53.106;7.030;2024-02-21T01:22:06;17.15;;;6.05;;
51654;SDS011;37732;53.106;7.030;2024-02-21T01:24:32;14.73;;;5.97;;
51654;SDS011;37732;53.106;7.030;2024-02-21T01:26:58;18.88;;;6.57;;
51654;SDS011;37732;53.106;7.030;2024-02-21T01:29:23;12.60;;;5.13;;
51654;SDS011;37732;53.106;7.030;2024-02-21T01:31:49;17.67;;;6.45;;
51654;SDS011;37732;53.106;7.030;2024-02-21T01:34:15;17.52;;;6.78;;
51654;SDS011;37732;53.106;7.030;2024-02-21T01:36:41;17.27;;;8.98;;
51654;SDS011;37732;53.106;7.030;2024-02-21T01:39:07;15.90;;;7.15;;
51654;SDS011;37732;53.106;7.030;2024-02-21T01:41:33;17.38;;;7.85;;
51654;SDS011;37732;53.106;7.030;2024-02-21T01:43:58;16.52;;;7.10;;
51654;SDS011;37732;53.106;7.030;2024-02-21T01:46:24;12.98;;;6.20;;
51654;SDS011;37732;53.106;7.030;2024-02-21T01:48:57;21.83;;;6.60;;
51654;SDS011;37732;53.106;7.030;2024-02-21T01:51:23;14.48;;;6.05;;
51654;SDS011;37732;53.106;7.030;2024-02-21T01:53:50;18.60;;;7.38;;
51654;SDS011;37732;53.106;7.030;2024-02-21T01:56:17;16.15;;;7.25;;
51654;SDS011;37732;53.106;7.030;2024-02-21T01:58:43;15.05;;;6.80;;
51654;SDS011;37732;53.106;7.030;2024-02-21T02:03:38;17.48;;;7.65;;
51654;SDS011;37732;53.106;7.030;2024-02-21T02:06:05;16.20;;;7.63;;
51654;SDS011;37732;53.106;7.030;2024-02-21T02:08:33;14.43;;;6.97;;
51654;SDS011;37732;53.106;7.030;2024-02-21T02:10:59;20.63;;;7.63;;
51654;SDS011;37732;53.106;7.030;2024-02-21T02:13:25;19.50;;;7.88;;
51654;SDS011;37732;53.106;7.030;2024-02-21T02:15:51;19.00;;;8.05;;
51654;SDS011;37732;53.106;7.030;2024-02-21T02:18:17;16.90;;;7.35;;
51654;SDS011;37732;53.106;7.030;2024-02-21T02:20:44;18.33;;;9.82;;
51654;SDS011;37732;53.106;7.030;2024-02-21T02:23:12;17.23;;;8.57;;
51654;SDS011;37732;53.106;7.030;2024-02-21T02:25:57;15.95;;;7.70;;
51654;SDS011;37732;53.106;7.030;2024-02-21T02:28:23;15.93;;;7.82;;
51654;SDS011;37732;53.106;7.030;2024-02-21T02:30:49;18.42;;;7.68;;
51654;SDS011;37732;53.106;7.030;2024-02-21T02:33:15;16.83;;;9.13;;
51654;SDS011;37732;53.106;7.030;2024-02-21T02:35:44;14.00;;;9.05;;
51654;SDS011;37732;53.106;7.030;2024-02-21T02:38:10;13.80;;;9.30;;
51654;SDS011;37732;53.106;7.030;2024-02-21T02:40:37;18.58;;;9.32;;
51654;SDS011;37732;53.106;7.030;2024-02-21T02:43:04;19.60;;;9.82;;
51654;SDS011;37732;53.106;7.030;2024-02-21T02:45:29;16.40;;;7.22;;
51654;SDS011;37732;53.106;7.030;2024-02-21T02:47:56;22.85;;;8.60;;
51654;SDS011;37732;53.106;7.030;2024-02-21T02:50:22;16.70;;;8.30;;
51654;SDS011;37732;53.106;7.030;2024-02-21T02:52:48;19.13;;;7.47;;
51654;SDS011;37732;53.106;7.030;2024-02-21T02:55:14;16.45;;;7.18;;
51654;SDS011;37732;53.106;7.030;2024-02-21T02:57:40;16.25;;;7.30;;
51654;SDS011;37732;53.106;7.030;2024-02-21T03:00:12;16.25;;;8.35;;
51654;SDS011;37732;53.106;7.030;2024-02-21T03:02:39;19.35;;;10.65;;
51654;SDS011;37732;53.106;7.030;2024-02-21T03:05:17;17.08;;;10.25;;
51654;SDS011;37732;53.106;7.030;2024-02-21T03:07:44;20.35;;;11.20;;
51654;SDS011;37732;53.106;7.030;2024-02-21T03:10:10;18.90;;;9.77;;
51654;SDS011;37732;53.106;7.030;2024-02-21T03:12:36;16.38;;;9.85;;
51654;SDS011;37732;53.106;7.030;2024-02-21T03:15:03;22.60;;;8.77;;
51654;SDS011;37732;53.106;7.030;2024-02-21T03:17:30;18.52;;;9.15;;
51654;SDS011;37732;53.106;7.030;2024-02-21T03:19:56;17.27;;;9.48;;
51654;SDS011;37732;53.106;7.030;2024-02-21T03:22:22;17.40;;;9.00;;
51654;SDS011;37732;53.106;7.030;2024-02-21T03:24:48;18.20;;;8.35;;
51654;SDS011;37732;53.106;7.030;2024-02-21T03:27:14;17.40;;;8.80;;
51654;SDS011;37732;53.106;7.030;2024-02-21T03:29:40;12.10;;;7.53;;
51654;SDS011;37732;53.106;7.030;2024-02-21T03:32:05;19.13;;;7.63;;
51654;SDS011;37732;53.106;7.030;2024-02-21T03:34:31;21.60;;;8.98;;
51654;SDS011;37732;53.106;7.030;2024-02-21T03:36:57;20.67;;;8.65;;
51654;SDS011;37732;53.106;7.030;2024-02-21T03:39:22;20.50;;;9.00;;
51654;SDS011;37732;53.106;7.030;2024-02-21T03:41:48;15.52;;;8.57;;
51654;SDS011;37732;53.106;7.030;2024-02-21T03:44:14;18.65;;;9.55;;
51654;SDS011;37732;53.106;7.030;2024-02-21T03:46:39;17.23;;;8.30;;
51654;SDS011;37732;53.106;7.030;2024-02-21T03:49:05;17.60;;;8.75;;
51654;SDS011;37732;53.106;7.030;2024-02-21T03:51:30;21.90;;;10.05;;
51654;SDS011;37732;53.106;7.030;2024-02-21T03:53:56;18.23;;;9.40;;
51654;SDS011;37732;53.106;7.030;2024-02-21T03:56:22;17.90;;;9.73;;
51654;SDS011;37732;53.106;7.030;2024-02-21T03:58:48;21.60;;;9.75;;
51654;SDS011;37732;53.106;7.030;2024-02-21T04:01:15;19.95;;;9.88;;
51654;SDS011;37732;53.106;7.030;2024-02-21T04:03:41;16.80;;;9.43;;
51654;SDS011;37732;53.106;7.030;2024-02-21T04:06:08;21.65;;;9.82;;
51654;SDS011;37732;53.106;7.030;2024-02-21T04:08:34;21.35;;;10.43;;
51654;SDS011;37732;53.106;7.030;2024-02-21T04:11:00;17.63;;;10.18;;
51654;SDS011;37732;53.106;7.030;2024-02-21T04:13:26;20.70;;;10.63;;
51654;SDS011;37732;53.106;7.030;2024-02-21T04:15:51;20.63;;;9.88;;
51654;SDS011;37732;53.106;7.030;2024-02-21T04:18:17;22.25;;;10.52;;
51654;SDS011;37732;53.106;7.030;2024-02-21T04:20:43;25.30;;;10.60;;
51654;SDS011;37732;53.106;7.030;2024-02-21T04:23:09;20.02;;;10.65;;
51654;SDS011;37732;53.106;7.030;2024-02-21T04:25:34;26.25;;;11.90;;
51654;SDS011;37732;53.106;7.030;2024-02-21T04:28:00;24.52;;;10.65;;
51654;SDS011;37732;53.106;7.030;2024-02-21T04:30:26;23.05;;;11.73;;
51654;SDS011;37732;53.106;7.030;2024-02-21T04:32:52;28.45;;;12.05;;
51654;SDS011;37732;53.106;7.030;2024-02-21T04:35:17;25.58;;;11.68;;
51654;SDS011;37732;53.106;7.030;2024-02-21T04:37:43;21.55;;;11.77;;
51654;SDS011;37732;53.106;7.030;2024-02-21T04:40:09;18.60;;;11.07;;
51654;SDS011;37732;53.106;7.030;2024-02-21T04:42:36;23.92;;;13.13;;
51654;SDS011;37732;53.106;7.030;2024-02-21T04:45:02;25.63;;;12.52;;
51654;SDS011;37732;53.106;7.030;2024-02-21T04:47:28;21.25;;;11.60;;
51654;SDS011;37732;53.106;7.030;2024-02-21T04:49:53;27.27;;;11.90;;
51654;SDS011;37732;53.106;7.030;2024-02-21T04:52:19;25.25;;;14.50;;
51654;SDS011;37732;53.106;7.030;2024-02-21T04:54:45;29.58;;;13.23;;
51654;SDS011;37732;53.106;7.030;2024-02-21T04:57:10;25.92;;;14.85;;
51654;SDS011;37732;53.106;7.030;2024-02-21T04:59:36;21.40;;;12.98;;
51654;SDS011;37732;53.106;7.030;2024-02-21T05:02:02;26.60;;;14.23;;
51654;SDS011;37732;53.106;7.030;2024-02-21T05:04:28;28.88;;;14.75;;
51654;SDS011;37732;53.106;7.030;2024-02-21T05:06:53;23.17;;;14.68;;
51654;SDS011;37732;53.106;7.030;2024-02-21T05:09:19;24.70;;;14.50;;
51654;SDS011;37732;53.106;7.030;2024-02-21T05:11:45;26.15;;;14.77;;
51654;SDS011;37732;53.106;7.030;2024-02-21T05:14:11;29.23;;;17.38;;
51654;SDS011;37732;53.106;7.030;2024-02-21T05:16:38;31.02;;;18.63;;
51654;SDS011;37732;53.106;7.030;2024-02-21T05:19:04;31.20;;;16.77;;
51654;SDS011;37732;53.106;7.030;2024-02-21T05:21:30;29.10;;;15.65;;
51654;SDS011;37732;53.106;7.030;2024-02-21T05:23:56;26.27;;;15.77;;
51654;SDS011;37732;53.106;7.030;2024-02-21T05:26:22;25.92;;;15.60;;
51654;SDS011;37732;53.106;7.030;2024-02-21T05:28:49;25.13;;;16.88;;
51654;SDS011;37732;53.106;7.030;2024-02-21T05:31:15;31.60;;;18.13;;
51654;SDS011;37732;53.106;7.030;2024-02-21T05:33:42;28.67;;;17.35;;
51654;SDS011;37732;53.106;7.030;2024-02-21T05:36:08;29.63;;;17.88;;
51654;SDS011;37732;53.106;7.030;2024-02-21T05:38:34;29.38;;;19.73;;
51654;SDS011;37732;53.106;7.030;2024-02-21T05:41:00;32.78;;;20.88;;
51654;SDS011;37732;53.106;7.030;2024-02-21T05:43:26;31.20;;;17.80;;
51654;SDS011;37732;53.106;7.030;2024-02-21T05:45:52;34.83;;;17.27;;
51654;SDS011;37732;53.106;7.030;2024-02-21T05:48:17;29.23;;;17.55;;
51654;SDS011;37732;53.106;7.030;2024-02-21T05:50:43;32.10;;;20.13;;
51654;SDS011;37732;53.106;7.030;2024-02-21T05:53:09;26.05;;;15.50;;
51654;SDS011;37732;53.106;7.030;2024-02-21T05:55:36;34.15;;;16.30;;
51654;SDS011;37732;53.106;7.030;2024-02-21T05:58:02;28.73;;;14.70;;
51654;SDS011;37732;53.106;7.030;2024-02-21T06:00:28;20.25;;;13.90;;
51654;SDS011;37732;53.106;7.030;2024-02-21T06:02:54;34.13;;;14.32;;
51654;SDS011;37732;53.106;7.030;2024-02-21T06:05:20;30.63;;;14.00;;
51654;SDS011;37732;53.106;7.030;2024-02-21T06:07:46;25.88;;;14.68;;
51654;SDS011;37732;53.106;7.030;2024-02-21T06:10:11;30.50;;;14.80;;
51654;SDS011;37732;53.106;7.030;2024-02-21T06:12:37;33.38;;;15.70;;
51654;SDS011;37732;53.106;7.030;2024-02-21T06:15:03;31.15;;;15.02;;
51654;SDS011;37732;53.106;7.030;2024-02-21T06:17:29;38.33;;;17.20;;
51654;SDS011;37732;53.106;7.030;2024-02-21T06:19:54;37.47;;;17.50;;
51654;SDS011;37732;53.106;7.030;2024-02-21T06:22:20;36.63;;;17.40;;
51654;SDS011;37732;53.106;7.030;2024-02-21T06:24:46;41.20;;;17.17;;
51654;SDS011;37732;53.106;7.030;2024-02-21T06:27:11;35.10;;;17.98;;
51654;SDS011;37732;53.106;7.030;2024-02-21T06:29:39;33.40;;;17.73;;
51654;SDS011;37732;53.106;7.030;2024-02-21T06:32:05;40.80;;;18.95;;
51654;SDS011;37732;53.106;7.030;2024-02-21T06:34:31;36.60;;;19.42;;
51654;SDS011;37732;53.106;7.030;2024-02-21T06:36:57;41.17;;;20.60;;
51654;SDS011;37732;53.106;7.030;2024-02-21T06:39:22;41.45;;;19.58;;
51654;SDS011;37732;53.106;7.030;2024-02-21T06:41:48;45.17;;;19.48;;
51654;SDS011;37732;53.106;7.030;2024-02-21T06:44:16;35.53;;;18.75;;
51654;SDS011;37732;53.106;7.030;2024-02-21T06:46:42;39.28;;;19.77;;
51654;SDS011;37732;53.106;7.030;2024-02-21T06:49:08;47.53;;;20.42;;
51654;SDS011;37732;53.106;7.030;2024-02-21T06:51:34;36.95;;;17.33;;
51654;SDS011;37732;53.106;7.030;2024-02-21T06:54:00;37.63;;;18.88;;
51654;SDS011;37732;53.106;7.030;2024-02-21T06:56:25;30.02;;;18.25;;
51654;SDS011;37732;53.106;7.030;2024-02-21T06:58:54;38.38;;;18.10;;
51654;SDS011;37732;53.106;7.030;2024-02-21T07:01:21;50.13;;;21.75;;
51654;SDS011;37732;53.106;7.030;2024-02-21T07:03:46;44.78;;;19.80;;
51654;SDS011;37732;53.106;7.030;2024-02-21T07:06:12;43.15;;;19.52;;
51654;SDS011;37732;53.106;7.030;2024-02-21T07:08:38;47.83;;;20.45;;
51654;SDS011;37732;53.106;7.030;2024-02-21T07:11:04;38.60;;;18.30;;
51654;SDS011;37732;53.106;7.030;2024-02-21T07:13:30;41.92;;;19.88;;
51654;SDS011;37732;53.106;7.030;2024-02-21T07:15:57;41.28;;;20.05;;
51654;SDS011;37732;53.106;7.030;2024-02-21T07:18:22;42.03;;;20.75;;
51654;SDS011;37732;53.106;7.030;2024-02-21T07:20:50;43.28;;;18.92;;
51654;SDS011;37732;53.106;7.030;2024-02-21T07:23:16;47.42;;;21.73;;
51654;SDS011;37732;53.106;7.030;2024-02-21T07:25:42;41.20;;;20.33;;
51654;SDS011;37732;53.106;7.030;2024-02-21T07:28:08;44.78;;;19.70;;
51654;SDS011;37732;53.106;7.030;2024-02-21T07:30:33;41.17;;;21.55;;
51654;SDS011;37732;53.106;7.030;2024-02-21T07:32:59;48.40;;;20.67;;
51654;SDS011;37732;53.106;7.030;2024-02-21T07:35:25;54.63;;;20.95;;
51654;SDS011;37732;53.106;7.030;2024-02-21T07:37:51;42.33;;;19.38;;
51654;SDS011;37732;53.106;7.030;2024-02-21T07:40:17;36.15;;;19.10;;
51654;SDS011;37732;53.106;7.030;2024-02-21T07:42:43;38.83;;;17.75;;
51654;SDS011;37732;53.106;7.030;2024-02-21T07:45:08;38.03;;;17.15;;
51654;SDS011;37732;53.106;7.030;2024-02-21T07:47:35;36.78;;;18.98;;
51654;SDS011;37732;53.106;7.030;2024-02-21T07:50:04;34.90;;;18.20;;
51654;SDS011;37732;53.106;7.030;2024-02-21T07:52:31;36.92;;;16.48;;
51654;SDS011;37732;53.106;7.030;2024-02-21T07:54:57;33.97;;;17.58;;
51654;SDS011;37732;53.106;7.030;2024-02-21T07:57:22;30.85;;;17.13;;
51654;SDS011;37732;53.106;7.030;2024-02-21T07:59:48;36.58;;;18.08;;
51654;SDS011;37732;53.106;7.030;2024-02-21T08:02:14;34.67;;;17.05;;
51654;SDS011;37732;53.106;7.030;2024-02-21T08:04:40;33.63;;;18.38;;
51654;SDS011;37732;53.106;7.030;2024-02-21T08:07:06;31.27;;;16.63;;
51654;SDS011;37732;53.106;7.030;2024-02-21T08:09:32;29.80;;;16.33;;
51654;SDS011;37732;53.106;7.030;2024-02-21T08:11:58;39.85;;;16.83;;
51654;SDS011;37732;53.106;7.030;2024-02-21T08:14:23;30.65;;;16.58;;
51654;SDS011;37732;53.106;7.030;2024-02-21T08:16:50;30.45;;;16.58;;
51654;SDS011;37732;53.106;7.030;2024-02-21T08:19:18;27.88;;;15.70;;
51654;SDS011;37732;53.106;7.030;2024-02-21T08:21:44;28.15;;;14.85;;
51654;SDS011;37732;53.106;7.030;2024-02-21T08:24:12;28.33;;;17.33;;
51654;SDS011;37732;53.106;7.030;2024-02-21T08:26:43;27.23;;;16.75;;
51654;SDS011;37732;53.106;7.030;2024-02-21T08:29:12;28.92;;;16.38;;
51654;SDS011;37732;53.106;7.030;2024-02-21T08:31:38;26.70;;;17.50;;
51654;SDS011;37732;53.106;7.030;2024-02-21T08:34:04;36.45;;;20.23;;
51654;SDS011;37732;53.106;7.030;2024-02-21T08:36:33;31.15;;;19.25;;
51654;SDS011;37732;53.106;7.030;2024-02-21T08:39:00;36.55;;;19.52;;
51654;SDS011;37732;53.106;7.030;2024-02-21T08:41:26;29.70;;;20.98;;
51654;SDS011;37732;53.106;7.030;2024-02-21T08:43:52;33.30;;;18.65;;
51654;SDS011;37732;53.106;7.030;2024-02-21T08:46:22;34.38;;;18.85;;
51654;SDS011;37732;53.106;7.030;2024-02-21T08:48:51;29.70;;;19.38;;
51654;SDS011;37732;53.106;7.030;2024-02-21T08:51:18;32.22;;;18.08;;
51654;SDS011;37732;53.106;7.030;2024-02-21T08:53:44;31.35;;;18.52;;
51654;SDS011;37732;53.106;7.030;2024-02-21T08:56:10;26.58;;;18.55;;
51654;SDS011;37732;53.106;7.030;2024-02-21T08:58:36;29.67;;;17.42;;
51654;SDS011;37732;53.106;7.030;2024-02-21T09:01:05;30.45;;;19.35;;
51654;SDS011;37732;53.106;7.030;2024-02-21T09:03:34;29.00;;;19.05;;
51654;SDS011;37732;53.106;7.030;2024-02-21T09:06:04;31.15;;;19.35;;
51654;SDS011;37732;53.106;7.030;2024-02-21T09:08:34;28.23;;;19.58;;
51654;SDS011;37732;53.106;7.030;2024-02-21T09:11:00;27.77;;;18.83;;
51654;SDS011;37732;53.106;7.030;2024-02-21T09:13:27;26.05;;;19.73;;
51654;SDS011;37732;53.106;7.030;2024-02-21T09:15:53;31.83;;;20.58;;
51654;SDS011;37732;53.106;7.030;2024-02-21T09:18:18;33.28;;;21.23;;
51654;SDS011;37732;53.106;7.030;2024-02-21T09:20:44;31.73;;;21.30;;
51654;SDS011;37732;53.106;7.030;2024-02-21T09:23:11;31.40;;;22.13;;
51654;SDS011;37732;53.106;7.030;2024-02-21T09:25:37;32.55;;;22.10;;
51654;SDS011;37732;53.106;7.030;2024-02-21T09:28:02;27.70;;;21.52;;
51654;SDS011;37732;53.106;7.030;2024-02-21T09:30:29;32.90;;;22.67;;
51654;SDS011;37732;53.106;7.030;2024-02-21T09:32:55;30.98;;;22.08;;
51654;SDS011;37732;53.106;7.030;2024-02-21T09:35:23;27.60;;;21.23;;
51654;SDS011;37732;53.106;7.030;2024-02-21T09:37:51;29.42;;;21.90;;
51654;SDS011;37732;53.106;7.030;2024-02-21T09:40:18;30.65;;;22.73;;
51654;SDS011;37732;53.106;7.030;2024-02-21T09:42:43;31.42;;;21.88;;
51654;SDS011;37732;53.106;7.030;2024-02-21T09:45:19;30.83;;;22.52;;
51654;SDS011;37732;53.106;7.030;2024-02-21T09:50:21;30.65;;;23.60;;
51654;SDS011;37732;53.106;7.030;2024-02-21T09:52:48;26.98;;;21.00;;
51654;SDS011;37732;53.106;7.030;2024-02-21T09:55:14;30.58;;;23.25;;
51654;SDS011;37732;53.106;7.030;2024-02-21T09:57:41;29.92;;;22.92;;
51654;SDS011;37732;53.106;7.030;2024-02-21T10:00:09;30.13;;;22.08;;
51654;SDS011;37732;53.106;7.030;2024-02-21T10:02:35;27.05;;;21.58;;
51654;SDS011;37732;53.106;7.030;2024-02-21T10:05:01;32.55;;;23.45;;
51654;SDS011;37732;53.106;7.030;2024-02-21T10:07:29;27.00;;;21.55;;
51654;SDS011;37732;53.106;7.030;2024-02-21T10:10:02;32.72;;;22.27;;
51654;SDS011;37732;53.106;7.030;2024-02-21T10:12:28;28.23;;;21.58;;
51654;SDS011;37732;53.106;7.030;2024-02-21T10:15:00;30.67;;;22.85;;
51654;SDS011;37732;53.106;7.030;2024-02-21T10:17:26;30.88;;;23.23;;
51654;SDS011;37732;53.106;7.030;2024-02-21T10:19:52;29.33;;;22.35;;
51654;SDS011;37732;53.106;7.030;2024-02-21T10:22:18;27.38;;;21.60;;
51654;SDS011;37732;53.106;7.030;2024-02-21T10:24:46;29.00;;;22.35;;
51654;SDS011;37732;53.106;7.030;2024-02-21T10:27:11;30.92;;;21.10;;
51654;SDS011;37732;53.106;7.030;2024-02-21T10:29:37;26.88;;;20.73;;
51654;SDS011;37732;53.106;7.030;2024-02-21T10:32:07;30.20;;;21.65;;
51654;SDS011;37732;53.106;7.030;2024-02-21T10:34:37;30.60;;;21.98;;
51654;SDS011;37732;53.106;7.030;2024-02-21T10:37:04;30.50;;;22.45;;
51654;SDS011;37732;53.106;7.030;2024-02-21T10:39:32;29.02;;;19.95;;
51654;SDS011;37732;53.106;7.030;2024-02-21T10:41:59;24.27;;;20.00;;
51654;SDS011;37732;53.106;7.030;2024-02-21T10:44:29;26.00;;;20.20;;
51654;SDS011;37732;53.106;7.030;2024-02-21T10:46:59;22.67;;;19.27;;
51654;SDS011;37732;53.106;7.030;2024-02-21T10:49:26;26.33;;;19.48;;
51654;SDS011;37732;53.106;7.030;2024-02-21T10:51:59;23.23;;;19.40;;
51654;SDS011;37732;53.106;7.030;2024-02-21T10:54:53;23.90;;;19.42;;
51654;SDS011;37732;53.106;7.030;2024-02-21T10:57:22;25.63;;;19.77;;
51654;SDS011;37732;53.106;7.030;2024-02-21T10:59:48;30.02;;;21.15;;
51654;SDS011;37732;53.106;7.030;2024-02-21T11:02:15;24.73;;;18.10;;
51654;SDS011;37732;53.106;7.030;2024-02-21T11:04:41;24.83;;;19.60;;
51654;SDS011;37732;53.106;7.030;2024-02-21T11:07:08;28.08;;;18.65;;
51654;SDS011;37732;53.106;7.030;2024-02-21T11:09:34;27.50;;;19.70;;
51654;SDS011;37732;53.106;7.030;2024-02-21T11:12:02;27.65;;;18.50;;
51654;SDS011;37732;53.106;7.030;2024-02-21T11:14:29;24.23;;;18.55;;
51654;SDS011;37732;53.106;7.030;2024-02-21T11:16:57;22.92;;;16.83;;
51654;SDS011;37732;53.106;7.030;2024-02-21T11:19:27;26.50;;;16.83;;
51654;SDS011;37732;53.106;7.030;2024-02-21T11:21:54;22.60;;;16.13;;
51654;SDS011;37732;53.106;7.030;2024-02-21T11:24:40;23.55;;;16.25;;
51654;SDS011;37732;53.106;7.030;2024-02-21T11:27:09;23.48;;;15.82;;
51654;SDS011;37732;53.106;7.030;2024-02-21T11:32:21;25.55;;;14.98;;
51654;SDS011;37732;53.106;7.030;2024-02-21T11:34:57;23.42;;;15.85;;
51654;SDS011;37732;53.106;7.030;2024-02-21T11:37:28;19.05;;;14.57;;
51654;SDS011;37732;53.106;7.030;2024-02-21T11:39:55;23.35;;;15.27;;
51654;SDS011;37732;53.106;7.030;2024-02-21T11:42:21;22.17;;;14.38;;
51654;SDS011;37732;53.106;7.030;2024-02-21T11:44:47;20.40;;;14.55;;
51654;SDS011;37732;53.106;7.030;2024-02-21T11:47:14;20.63;;;13.93;;
51654;SDS011;37732;53.106;7.030;2024-02-21T11:49:47;18.88;;;13.23;;
51654;SDS011;37732;53.106;7.030;2024-02-21T11:52:15;17.90;;;12.60;;
51654;SDS011;37732;53.106;7.030;2024-02-21T11:54:43;17.58;;;12.23;;
51654;SDS011;37732;53.106;7.030;2024-02-21T11:57:10;15.73;;;11.43;;
51654;SDS011;37732;53.106;7.030;2024-02-21T11:59:39;19.92;;;11.85;;
51654;SDS011;37732;53.106;7.030;2024-02-21T12:02:06;19.70;;;11.98;;
51654;SDS011;37732;53.106;7.030;2024-02-21T12:04:32;17.88;;;12.30;;
51654;SDS011;37732;53.106;7.030;2024-02-21T12:06:58;15.75;;;11.57;;
51654;SDS011;37732;53.106;7.030;2024-02-21T12:09:25;15.32;;;10.88;;
51654;SDS011;37732;53.106;7.030;2024-02-21T12:11:57;14.60;;;11.50;;
51654;SDS011;37732;53.106;7.030;2024-02-21T12:14:24;18.10;;;12.25;;
51654;SDS011;37732;53.106;7.030;2024-02-21T12:16:50;16.15;;;12.20;;
51654;SDS011;37732;53.106;7.030;2024-02-21T12:19:16;15.95;;;11.45;;
51654;SDS011;37732;53.106;7.030;2024-02-21T12:21:42;14.18;;;10.75;;
51654;SDS011;37732;53.106;7.030;2024-02-21T12:24:13;15.27;;;10.95;;
51654;SDS011;37732;53.106;7.030;2024-02-21T12:26:40;16.45;;;11.50;;
51654;SDS011;37732;53.106;7.030;2024-02-21T12:29:06;16.40;;;11.73;;
51654;SDS011;37732;53.106;7.030;2024-02-21T12:31:35;14.02;;;10.30;;
51654;SDS011;37732;53.106;7.030;2024-02-21T12:34:02;14.82;;;11.18;;
51654;SDS011;37732;53.106;7.030;2024-02-21T12:36:27;14.90;;;10.98;;
51654;SDS011;37732;53.106;7.030;2024-02-21T12:38:53;12.73;;;10.55;;
51654;SDS011;37732;53.106;7.030;2024-02-21T12:41:19;12.27;;;9.27;;
51654;SDS011;37732;53.106;7.030;2024-02-21T12:43:45;13.88;;;10.10;;
51654;SDS011;37732;53.106;7.030;2024-02-21T12:46:11;13.07;;;9.65;;
51654;SDS011;37732;53.106;7.030;2024-02-21T12:48:36;13.55;;;9.50;;
51654;SDS011;37732;53.106;7.030;2024-02-21T12:51:02;12.82;;;9.35;;
51654;SDS011;37732;53.106;7.030;2024-02-21T12:53:28;16.77;;;11.10;;
51654;SDS011;37732;53.106;7.030;2024-02-21T12:55:55;14.65;;;11.02;;
51654;SDS011;37732;53.106;7.030;2024-02-21T12:58:21;14.60;;;10.32;;
51654;SDS011;37732;53.106;7.030;2024-02-21T13:00:47;15.32;;;10.43;;
51654;SDS011;37732;53.106;7.030;2024-02-21T13:03:14;14.65;;;9.82;;
51654;SDS011;37732;53.106;7.030;2024-02-21T13:05:39;12.02;;;8.65;;
51654;SDS011;37732;53.106;7.030;2024-02-21T13:08:06;16.52;;;10.25;;
51654;SDS011;37732;53.106;7.030;2024-02-21T13:10:32;13.15;;;9.30;;
51654;SDS011;37732;53.106;7.030;2024-02-21T13:13:01;11.70;;;9.63;;
51654;SDS011;37732;53.106;7.030;2024-02-21T13:15:27;12.60;;;9.00;;
51654;SDS011;37732;53.106;7.030;2024-02-21T13:17:53;10.98;;;8.13;;
51654;SDS011;37732;53.106;7.030;2024-02-21T13:20:20;10.75;;;7.78;;
51654;SDS011;37732;53.106;7.030;2024-02-21T13:22:46;10.82;;;8.00;;
51654;SDS011;37732;53.106;7.030;2024-02-21T13:25:12;13.35;;;7.63;;
51654;SDS011;37732;53.106;7.030;2024-02-21T13:27:43;10.15;;;6.43;;
51654;SDS011;37732;53.106;7.030;2024-02-21T13:30:09;9.00;;;6.03;;
51654;SDS011;37732;53.106;7.030;2024-02-21T13:32:35;7.82;;;5.57;;
51654;SDS011;37732;53.106;7.030;2024-02-21T13:35:01;8.27;;;5.50;;
51654;SDS011;37732;53.106;7.030;2024-02-21T13:37:28;6.70;;;4.95;;
51654;SDS011;37732;53.106;7.030;2024-02-21T13:39:54;10.38;;;4.70;;
51654;SDS011;37732;53.106;7.030;2024-02-21T13:42:20;6.88;;;5.05;;
51654;SDS011;37732;53.106;7.030;2024-02-21T13:44:46;6.97;;;5.13;;
51654;SDS011;37732;53.106;7.030;2024-02-21T13:47:13;8.38;;;5.00;;
51654;SDS011;37732;53.106;7.030;2024-02-21T13:49:41;10.18;;;5.53;;
51654;SDS011;37732;53.106;7.030;2024-02-21T13:52:07;8.82;;;5.70;;
51654;SDS011;37732;53.106;7.030;2024-02-21T13:54:34;8.95;;;5.90;;
51654;SDS011;37732;53.106;7.030;2024-02-21T13:57:00;8.60;;;5.63;;
51654;SDS011;37732;53.106;7.030;2024-02-21T13:59:27;8.70;;;5.20;;
51654;SDS011;37732;53.106;7.030;2024-02-21T14:01:53;9.02;;;5.90;;
51654;SDS011;37732;53.106;7.030;2024-02-21T14:04:19;9.93;;;5.60;;
51654;SDS011;37732;53.106;7.030;2024-02-21T14:06:45;7.47;;;5.57;;
51654;SDS011;37732;53.106;7.030;2024-02-21T14:09:11;8.35;;;5.65;;
51654;SDS011;37732;53.106;7.030;2024-02-21T14:11:37;9.38;;;5.63;;
51654;SDS011;37732;53.106;7.030;2024-02-21T14:14:04;8.50;;;6.35;;
51654;SDS011;37732;53.106;7.030;2024-02-21T14:16:30;8.07;;;5.75;;
51654;SDS011;37732;53.106;7.030;2024-02-21T14:18:56;12.13;;;6.57;;
51654;SDS011;37732;53.106;7.030;2024-02-21T14:21:21;9.93;;;6.63;;
51654;SDS011;37732;53.106;7.030;2024-02-21T14:23:47;11.60;;;6.85;;
51654;SDS011;37732;53.106;7.030;2024-02-21T14:26:13;9.02;;;6.13;;
51654;SDS011;37732;53.106;7.030;2024-02-21T14:28:41;10.57;;;6.68;;
51654;SDS011;37732;53.106;7.030;2024-02-21T14:31:07;7.75;;;5.82;;
51654;SDS011;37732;53.106;7.030;2024-02-21T14:33:36;9.13;;;6.50;;